< < Back
Terminal Aerodrome Forecast


Current Version              Previous Versions:   1  2  3  4  5  6  7  8  9  

Terminal Aerodrome Forecast

539
FTUS42 KFFC 201700
TAFFTY
TAF
KFTY 201732Z 2018/2118 29008KT P6SM VCSH SCT045
      TEMPO 2018/2022 VRB15G25KT 3SM -TSRA BKN030CB
     FM210200 28003KT P6SM FEW070
     FM211100 00000KT 5SM BR FEW080
     FM211300 00000KT P6SM FEW060=



Latest METAR

012
SAUS70 KWBC 210600 RRC
MTRFTY
METAR KFTY 210553Z 00000KT 10SM SCT110 22/19 A3010 RMK AO2 SLP182 60000
T02170194 10250 20217 58013


USA.gov is the U.S. government's official web portal to all federal, state and local government web resources and services.